Time;durP1;ratioP1;P1;durP2;ratioP2;P2;SDS_P1;SDS_P2;PMS_P1;PMS_P2;Temp;Humidity;BMP_temperature;BMP_pressure;BME280_temperature;BME280_humidity;BME280_pressure;Samples;Min_cycle;Max_cycle;Signal;HPM_P1;HPM_P2
2023/05/27 00:01:30;;;;;;;267.58;255.40;;;5.80;99.90;;;;;;4986170;28;20065;-75
2023/05/27 00:03:56;;;;;;;264.48;252.95;;;5.80;99.90;;;;;;4987043;28;20057;-76
2023/05/27 00:06:22;;;;;;;268.67;257.20;;;5.80;99.90;;;;;;4985831;28;20352;-76
2023/05/27 00:08:47;;;;;;;259.83;248.10;;;5.80;99.90;;;;;;4990936;28;20038;-76
2023/05/27 00:11:13;;;;;;;265.05;253.52;;;5.80;99.90;;;;;;4969479;28;20045;-76
2023/05/27 00:13:38;;;;;;;274.80;262.73;;;5.80;99.90;;;;;;4986537;28;20176;-76
2023/05/27 00:16:04;;;;;;;286.88;273.83;;;5.80;99.90;;;;;;4970412;28;20560;-76
2023/05/27 00:18:32;;;;;;;264.85;252.95;;;5.80;99.90;;;;;;4986800;28;20053;-76
2023/05/27 00:20:58;;;;;;;269.58;257.17;;;5.70;99.90;;;;;;4985466;28;20042;-76
2023/05/27 00:23:24;;;;;;;266.05;253.77;;;5.70;99.90;;;;;;4988221;28;20429;-76
2023/05/27 00:25:50;;;;;;;274.48;261.33;;;5.70;99.90;;;;;;4986387;28;20050;-76
2023/05/27 00:28:15;;;;;;;279.63;266.95;;;5.70;99.90;;;;;;4986663;28;20035;-76
2023/05/27 00:30:41;;;;;;;275.92;263.02;;;5.70;99.90;;;;;;4985836;28;20121;-76
2023/05/27 00:33:06;;;;;;;290.27;276.02;;;5.60;99.90;;;;;;4966482;28;20038;-76
2023/05/27 00:35:32;;;;;;;287.40;273.55;;;5.60;99.90;;;;;;4970526;28;20038;-76
2023/05/27 00:37:58;;;;;;;271.25;258.40;;;5.60;99.90;;;;;;4988164;28;20031;-76
2023/05/27 00:40:27;;;;;;;266.08;253.73;;;5.50;99.90;;;;;;4983635;28;20041;-76
2023/05/27 00:42:53;;;;;;;266.92;254.50;;;5.50;99.90;;;;;;4986864;28;20146;-76
2023/05/27 00:45:18;;;;;;;269.75;257.60;;;5.50;99.90;;;;;;4985309;28;20070;-76
2023/05/27 00:47:44;;;;;;;268.45;255.98;;;5.40;99.90;;;;;;4987072;28;20042;-76
2023/05/27 00:50:10;;;;;;;291.55;278.02;;;5.30;99.90;;;;;;4985567;28;20411;-76
2023/05/27 00:52:36;;;;;;;284.30;271.25;;;5.30;99.90;;;;;;4986499;28;20124;-76
2023/05/27 00:55:01;;;;;;;279.05;265.88;;;5.30;99.90;;;;;;4969428;28;20046;-76
2023/05/27 00:57:27;;;;;;;285.00;271.65;;;5.30;99.90;;;;;;4984488;28;20610;-76
2023/05/27 00:59:53;;;;;;;288.95;275.48;;;5.30;99.90;;;;;;4985056;28;20108;-76
2023/05/27 01:02:20;;;;;;;302.48;288.95;;;5.30;99.90;;;;;;4985875;28;20487;-76
2023/05/27 01:04:46;;;;;;;300.58;286.45;;;5.30;99.90;;;;;;4985633;28;20633;-76
2023/05/27 01:07:30;;;;;;;285.40;272.48;;;5.30;99.90;;;;;;4986458;28;20414;-76
2023/05/27 01:10:12;;;;;;;276.75;264.30;;;5.30;99.90;;;;;;4996165;28;20046;-76
2023/05/27 01:12:59;;;;;;;288.52;275.48;;;5.20;99.90;;;;;;4988028;28;20050;-77
2023/05/27 01:15:25;;;;;;;283.80;270.83;;;5.10;99.90;;;;;;4989171;28;20406;-76
2023/05/27 01:17:56;;;;;;;323.33;308.42;;;5.10;99.90;;;;;;4989278;28;20038;-76
2023/05/27 01:20:22;;;;;;;312.58;298.45;;;5.00;99.90;;;;;;4989809;28;20077;-76
2023/05/27 01:22:52;;;;;;;344.98;328.80;;;5.00;99.90;;;;;;4988806;28;20471;-76
2023/05/27 01:25:19;;;;;;;371.33;354.10;;;5.10;99.90;;;;;;5005967;28;20053;-76
2023/05/27 01:27:45;;;;;;;386.92;368.88;;;5.10;99.90;;;;;;4972167;28;20414;-76
2023/05/27 01:30:12;;;;;;;360.08;342.70;;;5.20;99.90;;;;;;4988884;28;20046;-75
2023/05/27 01:32:51;;;;;;;365.83;348.55;;;5.20;99.90;;;;;;4988982;28;20046;-76
2023/05/27 01:35:55;;;;;;;353.25;336.98;;;5.20;99.90;;;;;;4973353;28;20035;-76
2023/05/27 01:38:22;;;;;;;340.88;325.58;;;5.20;99.90;;;;;;4954086;28;20047;-76
2023/05/27 01:40:49;;;;;;;350.58;334.30;;;5.20;99.90;;;;;;4951574;28;20051;-76
2023/05/27 01:43:17;;;;;;;331.88;315.85;;;5.20;99.90;;;;;;4940069;28;20051;-76
2023/05/27 01:45:43;;;;;;;354.30;337.48;;;5.10;99.90;;;;;;4950408;28;20078;-76
2023/05/27 01:48:09;;;;;;;327.02;311.90;;;5.10;99.90;;;;;;4950698;28;20527;-76
2023/05/27 01:50:35;;;;;;;317.55;303.40;;;5.10;99.90;;;;;;4934884;28;20187;-76
2023/05/27 01:53:03;;;;;;;290.73;277.58;;;5.10;99.90;;;;;;4928282;28;20050;-77
2023/05/27 01:55:30;;;;;;;295.13;282.00;;;5.00;99.90;;;;;;4952266;28;20073;-76
2023/05/27 01:57:55;;;;;;;285.67;272.92;;;5.00;99.90;;;;;;4951518;28;20049;-76
2023/05/27 02:00:21;;;;;;;261.02;249.20;;;4.90;99.90;;;;;;4950020;28;20065;-76
2023/05/27 02:02:47;;;;;;;262.73;250.95;;;4.90;99.90;;;;;;4944098;28;20637;-76
2023/05/27 02:05:13;;;;;;;266.77;254.98;;;4.80;99.90;;;;;;4933150;29;20460;-76
2023/05/27 02:07:38;;;;;;;259.13;247.88;;;4.70;99.90;;;;;;4949441;28;20461;-76
2023/05/27 02:10:05;;;;;;;292.85;279.52;;;4.70;99.90;;;;;;4961983;28;20050;-76
2023/05/27 02:12:30;;;;;;;329.23;314.58;;;4.70;99.90;;;;;;4970616;28;20133;-76
2023/05/27 02:14:56;;;;;;;322.63;308.08;;;4.60;99.90;;;;;;4989102;28;20459;-76
2023/05/27 02:17:24;;;;;;;346.10;329.67;;;4.60;99.90;;;;;;4988954;28;20061;-76
2023/05/27 02:19:50;;;;;;;363.20;346.25;;;4.60;99.90;;;;;;4988679;28;20054;-76
2023/05/27 02:22:16;;;;;;;362.30;345.25;;;4.70;99.90;;;;;;4981860;28;20045;-76
2023/05/27 02:24:42;;;;;;;365.55;348.48;;;4.70;99.90;;;;;;4988164;28;20046;-75
2023/05/27 02:27:08;;;;;;;371.30;353.67;;;4.80;99.90;;;;;;4988200;28;20380;-75
2023/05/27 02:29:33;;;;;;;344.55;329.05;;;4.90;99.90;;;;;;4988424;28;20562;-76
2023/05/27 02:31:59;;;;;;;340.23;324.42;;;5.00;99.90;;;;;;4972748;28;20040;-76
2023/05/27 02:34:25;;;;;;;334.80;319.27;;;5.10;99.90;;;;;;4987323;28;20049;-76
2023/05/27 02:36:50;;;;;;;333.10;317.60;;;5.20;99.90;;;;;;4990922;28;20033;-76
2023/05/27 02:39:16;;;;;;;334.02;318.35;;;5.30;99.90;;;;;;4989946;28;20046;-75
2023/05/27 02:41:42;;;;;;;318.48;303.65;;;5.30;99.90;;;;;;4971344;28;20046;-76
2023/05/27 02:44:07;;;;;;;335.27;320.02;;;5.30;99.90;;;;;;4968685;28;20042;-75
2023/05/27 02:46:33;;;;;;;329.13;314.45;;;5.30;99.90;;;;;;4972616;28;20046;-76
2023/05/27 02:48:58;;;;;;;313.00;299.38;;;5.30;99.90;;;;;;4987155;28;20039;-76
2023/05/27 02:51:24;;;;;;;285.15;272.60;;;5.20;99.90;;;;;;4988346;28;20112;-76
2023/05/27 02:53:50;;;;;;;231.13;221.00;;;5.20;99.90;;;;;;4969580;28;20045;-77
2023/05/27 02:56:16;;;;;;;230.60;220.38;;;5.10;99.90;;;;;;4988817;28;20085;-77
2023/05/27 02:58:42;;;;;;;233.90;223.68;;;5.00;99.90;;;;;;4988989;28;20076;-77
2023/05/27 03:01:07;;;;;;;249.02;237.85;;;4.90;99.90;;;;;;4984196;28;20038;-76
2023/05/27 03:03:33;;;;;;;278.80;266.48;;;4.80;99.90;;;;;;4973648;28;20046;-76
2023/05/27 03:05:59;;;;;;;274.23;262.77;;;4.80;99.90;;;;;;4982702;28;20218;-76
2023/05/27 03:08:24;;;;;;;295.30;282.38;;;4.80;99.90;;;;;;4991973;28;20049;-76
2023/05/27 03:10:50;;;;;;;282.05;269.52;;;4.80;99.90;;;;;;4968911;28;20463;-76
2023/05/27 03:13:16;;;;;;;318.30;304.00;;;4.80;99.90;;;;;;4987946;28;20394;-76
2023/05/27 03:15:41;;;;;;;293.25;280.80;;;4.90;99.90;;;;;;4983234;28;20045;-76
2023/05/27 03:18:07;;;;;;;309.40;295.65;;;4.90;99.90;;;;;;4987786;28;20499;-76
2023/05/27 03:20:32;;;;;;;321.73;307.50;;;4.90;99.90;;;;;;4986807;28;20093;-76
2023/05/27 03:22:58;;;;;;;325.67;310.77;;;5.00;99.90;;;;;;4971320;28;20554;-76
2023/05/27 03:25:24;;;;;;;324.70;310.20;;;5.10;99.90;;;;;;4987879;28;20048;-76
2023/05/27 03:27:49;;;;;;;319.85;305.95;;;5.10;99.90;;;;;;4987152;28;20030;-76
2023/05/27 03:30:15;;;;;;;304.05;290.27;;;5.20;99.90;;;;;;4987541;28;20188;-76
2023/05/27 03:32:41;;;;;;;300.92;287.58;;;5.30;99.90;;;;;;4969675;28;20038;-76
2023/05/27 03:35:07;;;;;;;273.70;261.58;;;5.50;99.90;;;;;;4987725;28;20042;-76
2023/05/27 03:37:33;;;;;;;281.92;269.40;;;5.60;99.90;;;;;;4990758;28;20499;-76
2023/05/27 03:39:58;;;;;;;282.27;269.75;;;5.60;99.90;;;;;;4985853;28;20049;-76
2023/05/27 03:42:24;;;;;;;274.20;262.02;;;5.70;99.90;;;;;;4983179;28;20046;-76
2023/05/27 03:44:50;;;;;;;254.50;243.05;;;5.80;99.90;;;;;;4986794;28;20497;-76
2023/05/27 03:47:20;;;;;;;238.57;227.90;;;5.80;99.90;;;;;;4986365;28;20125;-76
2023/05/27 03:49:46;;;;;;;189.23;180.30;;;5.90;99.90;;;;;;4970596;28;20439;-76
2023/05/27 03:52:11;;;;;;;172.15;164.13;;;6.00;99.90;;;;;;4986678;28;20034;-76
2023/05/27 03:54:37;;;;;;;161.45;153.60;;;6.10;99.90;;;;;;4986774;28;20117;-76
2023/05/27 03:57:02;;;;;;;163.45;155.80;;;6.20;99.90;;;;;;4986760;28;20085;-76
2023/05/27 03:59:28;;;;;;;144.68;137.93;;;6.40;99.90;;;;;;4986768;28;20508;-76
2023/05/27 04:01:54;;;;;;;143.45;136.27;;;6.50;99.90;;;;;;4969387;28;20694;-76
2023/05/27 04:04:19;;;;;;;152.20;144.50;;;6.60;99.90;;;;;;4987070;28;20085;-76
2023/05/27 04:06:45;;;;;;;140.45;133.40;;;6.60;99.90;;;;;;4986357;28;20054;-77
2023/05/27 04:09:10;;;;;;;134.18;127.18;;;6.70;99.90;;;;;;4992700;28;20042;-76
2023/05/27 04:11:36;;;;;;;128.48;122.40;;;6.80;99.90;;;;;;4971261;28;20069;-76
2023/05/27 04:14:02;;;;;;;120.72;114.25;;;6.90;99.90;;;;;;4985775;28;20530;-76
2023/05/27 04:16:30;;;;;;;117.00;111.00;;;7.00;99.90;;;;;;4971013;28;20577;-76
2023/05/27 04:18:56;;;;;;;112.28;106.45;;;7.20;99.90;;;;;;4985028;28;20058;-76
2023/05/27 04:21:22;;;;;;;115.18;109.38;;;7.40;99.90;;;;;;4986913;28;20412;-76
2023/05/27 04:23:48;;;;;;;114.35;108.18;;;7.50;99.90;;;;;;4970274;28;20457;-77
2023/05/27 04:26:14;;;;;;;114.13;107.90;;;7.60;99.90;;;;;;4986242;28;20372;-76
2023/05/27 04:28:40;;;;;;;112.45;106.38;;;7.70;99.90;;;;;;4985972;28;20046;-76
2023/05/27 04:31:12;;;;;;;106.82;101.50;;;7.70;99.90;;;;;;4986518;28;20035;-76
2023/05/27 04:33:41;;;;;;;108.03;102.18;;;7.80;99.90;;;;;;4987507;28;20042;-76
2023/05/27 04:36:08;;;;;;;105.65;99.68;;;7.80;99.90;;;;;;4968897;28;20048;-77
2023/05/27 04:38:33;;;;;;;102.40;96.40;;;7.90;99.90;;;;;;4974959;28;20054;-76
2023/05/27 04:41:00;;;;;;;101.38;95.70;;;8.00;99.90;;;;;;4985273;28;20046;-77
2023/05/27 04:43:26;;;;;;;100.22;94.25;;;8.00;99.90;;;;;;4984958;28;20045;-76
2023/05/27 04:45:52;;;;;;;101.88;96.38;;;8.10;99.90;;;;;;4986516;28;20046;-76
2023/05/27 04:48:18;;;;;;;98.43;92.85;;;8.20;99.90;;;;;;4989239;28;20038;-77
2023/05/27 04:50:44;;;;;;;93.30;87.90;;;8.20;99.90;;;;;;4974342;28;20042;-77
2023/05/27 04:53:09;;;;;;;90.45;85.20;;;8.30;99.90;;;;;;4989134;28;20049;-76
2023/05/27 04:55:36;;;;;;;89.28;84.30;;;8.30;99.90;;;;;;4990113;28;20038;-77
2023/05/27 04:58:03;;;;;;;90.65;85.30;;;8.30;99.90;;;;;;4989183;28;20392;-76
2023/05/27 05:00:38;;;;;;;84.03;79.50;;;8.30;99.90;;;;;;4989054;28;20038;-76
2023/05/27 05:03:07;;;;;;;83.63;78.85;;;8.40;99.90;;;;;;4990533;28;20057;-77
2023/05/27 05:05:32;;;;;;;82.28;77.80;;;8.40;99.90;;;;;;4988286;28;20038;-76
2023/05/27 05:07:58;;;;;;;83.88;79.13;;;8.40;99.90;;;;;;4990244;28;20133;-76
2023/05/27 05:10:25;;;;;;;80.28;75.95;;;8.40;99.90;;;;;;4996058;28;20422;-76
2023/05/27 05:12:51;;;;;;;79.93;75.38;;;8.40;99.90;;;;;;4988741;28;20046;-77
2023/05/27 05:15:17;;;;;;;81.47;76.93;;;8.40;99.90;;;;;;4975828;28;20034;-76
2023/05/27 05:17:42;;;;;;;78.78;74.25;;;8.40;99.90;;;;;;4972884;28;20180;-76
2023/05/27 05:20:09;;;;;;;81.20;76.28;;;8.40;99.90;;;;;;4975823;28;20133;-77
2023/05/27 05:22:34;;;;;;;83.35;78.20;;;8.40;99.90;;;;;;4987171;28;20054;-76
2023/05/27 05:25:00;;;;;;;80.05;75.60;;;8.40;99.90;;;;;;4988669;28;20042;-77
2023/05/27 05:27:27;;;;;;;79.05;74.82;;;8.40;99.90;;;;;;4974205;28;20128;-77
2023/05/27 05:29:53;;;;;;;82.35;76.95;;;8.40;99.90;;;;;;4987203;28;20046;-76
2023/05/27 05:32:19;;;;;;;80.20;75.82;;;8.50;99.90;;;;;;4989597;28;20056;-77
2023/05/27 05:34:45;;;;;;;79.13;74.70;;;8.50;99.90;;;;;;4987554;28;20046;-77
2023/05/27 05:37:11;;;;;;;79.53;74.88;;;8.50;99.90;;;;;;4988770;28;20037;-77
2023/05/27 05:39:37;;;;;;;78.85;74.53;;;8.60;99.90;;;;;;4989248;28;20046;-77
2023/05/27 05:42:03;;;;;;;78.63;74.00;;;8.70;99.90;;;;;;4972226;28;20403;-77
2023/05/27 05:44:29;;;;;;;78.03;73.75;;;9.00;99.90;;;;;;4989454;28;20050;-76
2023/05/27 05:46:54;;;;;;;78.72;74.25;;;9.30;99.90;;;;;;4989384;28;20053;-76
2023/05/27 05:49:20;;;;;;;69.50;65.40;;;9.50;99.90;;;;;;4988597;28;20039;-77
2023/05/27 05:51:46;;;;;;;66.75;62.85;;;9.70;99.90;;;;;;4989324;28;20358;-77
2023/05/27 05:54:12;;;;;;;63.13;59.20;;;10.00;99.90;;;;;;4989678;28;20438;-77
2023/05/27 05:56:37;;;;;;;63.78;59.55;;;10.30;99.90;;;;;;4988188;28;20045;-78
2023/05/27 05:59:03;;;;;;;73.82;69.18;;;10.60;99.90;;;;;;4988022;28;20617;-77
2023/05/27 06:01:29;;;;;;;78.55;74.00;;;11.10;99.90;;;;;;4972654;28;20078;-77
2023/05/27 06:03:55;;;;;;;100.70;95.38;;;11.50;99.90;;;;;;4989080;28;20513;-77
2023/05/27 06:06:21;;;;;;;56.65;52.38;;;11.90;99.90;;;;;;4987657;28;20122;-76
2023/05/27 06:08:47;;;;;;;41.10;37.88;;;12.60;99.90;;;;;;4988789;28;20046;-76
2023/05/27 06:11:12;;;;;;;50.63;47.15;;;13.50;99.90;;;;;;4999500;28;20043;-76
2023/05/27 06:13:38;;;;;;;60.10;55.85;;;14.20;99.90;;;;;;4985678;28;20510;-76
2023/05/27 06:16:04;;;;;;;62.03;58.53;;;14.90;99.90;;;;;;4989005;28;20103;-76
2023/05/27 06:18:30;;;;;;;44.97;41.70;;;15.40;99.90;;;;;;4972995;28;20077;-77
2023/05/27 06:20:56;;;;;;;39.67;37.00;;;15.60;99.90;;;;;;4987414;28;20042;-76
2023/05/27 06:23:21;;;;;;;31.63;29.05;;;15.60;99.90;;;;;;4972779;28;20169;-76
2023/05/27 06:25:47;;;;;;;29.48;26.90;;;15.70;99.90;;;;;;4988197;28;20442;-75
2023/05/27 06:28:12;;;;;;;28.98;26.45;;;16.10;99.90;;;;;;4969548;28;20511;-76
2023/05/27 06:30:38;;;;;;;29.67;26.80;;;16.50;99.90;;;;;;4972010;28;20046;-76
2023/05/27 06:33:04;;;;;;;39.85;36.97;;;16.50;99.90;;;;;;4981887;28;20034;-76
2023/05/27 06:35:29;;;;;;;33.55;30.58;;;16.60;99.90;;;;;;4988481;28;20092;-76
2023/05/27 06:37:55;;;;;;;35.22;32.38;;;16.80;99.90;;;;;;4998399;28;20044;-76
2023/05/27 06:40:21;;;;;;;34.70;32.05;;;16.80;99.90;;;;;;4971470;28;20042;-77
2023/05/27 06:42:46;;;;;;;41.83;38.67;;;17.20;99.90;;;;;;4988823;28;20046;-76
2023/05/27 06:45:12;;;;;;;34.03;30.98;;;17.90;99.90;;;;;;4987894;28;20042;-77
2023/05/27 06:47:38;;;;;;;26.80;24.33;;;18.00;99.90;;;;;;4987085;28;20070;-75
2023/05/27 06:50:04;;;;;;;33.55;30.85;;;17.60;99.90;;;;;;4971434;28;20042;-76
2023/05/27 06:52:30;;;;;;;29.85;27.00;;;17.30;99.90;;;;;;4987279;28;20046;-77
2023/05/27 06:54:56;;;;;;;28.35;26.15;;;17.60;99.90;;;;;;4972242;28;20065;-77
2023/05/27 06:57:21;;;;;;;35.00;31.90;;;17.00;99.90;;;;;;4971239;28;20040;-76
2023/05/27 06:59:47;;;;;;;24.65;22.15;;;16.60;99.90;;;;;;4970846;28;20050;-77
2023/05/27 07:02:12;;;;;;;31.92;28.92;;;17.20;99.90;;;;;;4987616;28;20144;-76
2023/05/27 07:04:38;;;;;;;26.48;23.88;;;17.70;99.90;;;;;;4988468;28;20128;-77
2023/05/27 07:07:04;;;;;;;44.25;41.40;;;18.00;99.90;;;;;;4987014;28;20057;-77
2023/05/27 07:09:29;;;;;;;34.72;31.92;;;17.80;99.90;;;;;;4992990;28;20042;-76
2023/05/27 07:11:55;;;;;;;45.30;42.60;;;17.60;99.90;;;;;;4988373;28;20395;-77
2023/05/27 07:14:20;;;;;;;51.08;47.28;;;17.40;99.90;;;;;;4988448;28;20046;-76
2023/05/27 07:16:47;;;;;;;68.55;64.45;;;17.70;99.90;;;;;;4987284;28;20053;-77
2023/05/27 07:19:12;;;;;;;44.67;41.50;;;17.50;99.90;;;;;;4971253;28;20049;-77
2023/05/27 07:21:38;;;;;;;65.22;61.53;;;17.50;99.90;;;;;;4983530;28;20050;-77
2023/05/27 07:24:04;;;;;;;73.30;69.20;;;17.70;99.90;;;;;;5000051;28;20173;-76
2023/05/27 07:26:31;;;;;;;43.10;40.20;;;17.90;99.90;;;;;;4987545;28;20050;-75
2023/05/27 07:28:58;;;;;;;51.88;48.65;;;18.50;99.90;;;;;;4986330;28;20408;-76
2023/05/27 07:31:25;;;;;;;43.90;40.65;;;19.10;99.90;;;;;;4988061;28;20506;-75
2023/05/27 07:33:50;;;;;;;28.55;25.95;;;18.90;99.90;;;;;;4987598;28;20061;-76
2023/05/27 07:36:16;;;;;;;28.45;25.45;;;18.20;99.90;;;;;;4980878;28;20450;-77
2023/05/27 07:38:41;;;;;;;43.38;40.40;;;18.00;99.90;;;;;;4981429;28;20077;-76
2023/05/27 07:41:07;;;;;;;41.95;38.70;;;17.40;99.90;;;;;;4986840;28;20046;-76
2023/05/27 07:43:33;;;;;;;77.45;72.80;;;16.90;99.90;;;;;;4986813;28;20053;-76
2023/05/27 07:45:58;;;;;;;71.45;67.30;;;16.60;99.90;;;;;;4983866;28;20049;-76
2023/05/27 07:48:24;;;;;;;47.13;44.03;;;17.40;99.90;;;;;;4985749;28;20060;-77
2023/05/27 07:50:50;;;;;;;38.63;35.60;;;18.00;99.90;;;;;;4970997;28;20487;-76
2023/05/27 07:53:15;;;;;;;43.03;39.75;;;17.60;99.90;;;;;;4970361;28;20427;-75
2023/05/27 07:55:41;;;;;;;60.83;57.15;;;17.40;99.90;;;;;;4986062;28;20053;-76
2023/05/27 07:58:06;;;;;;;89.05;83.97;;;17.20;99.90;;;;;;4987362;28;20038;-76
2023/05/27 08:00:32;;;;;;;53.58;50.13;;;17.20;99.90;;;;;;4986593;28;20042;-76
2023/05/27 08:02:58;;;;;;;56.17;52.85;;;17.60;99.90;;;;;;4985346;28;20062;-77
2023/05/27 08:05:23;;;;;;;33.45;30.45;;;18.20;99.90;;;;;;4971196;28;20184;-76
2023/05/27 08:07:49;;;;;;;49.63;46.03;;;18.20;99.90;;;;;;4985275;28;20498;-75
2023/05/27 08:10:15;;;;;;;42.65;39.45;;;17.90;99.90;;;;;;4993897;28;20046;-77
2023/05/27 08:12:41;;;;;;;50.20;47.00;;;17.50;99.90;;;;;;4987006;28;20406;-76
2023/05/27 08:15:07;;;;;;;42.75;39.55;;;17.40;99.90;;;;;;4986599;28;20038;-77
2023/05/27 08:17:32;;;;;;;77.43;72.97;;;17.30;99.90;;;;;;4969092;28;20030;-77
2023/05/27 08:19:58;;;;;;;47.45;44.17;;;17.40;99.90;;;;;;4987576;28;20038;-75
2023/05/27 08:22:24;;;;;;;54.47;50.13;;;17.50;99.90;;;;;;4988759;28;20093;-76
2023/05/27 08:24:49;;;;;;;45.20;41.75;;;17.40;99.90;;;;;;4990046;28;20054;-78
2023/05/27 08:27:17;;;;;;;58.55;54.80;;;18.10;99.90;;;;;;4990241;28;20518;-75
2023/05/27 08:29:43;;;;;;;58.70;55.03;;;18.70;99.90;;;;;;4990716;28;20231;-76
2023/05/27 08:32:10;;;;;;;27.58;25.08;;;19.30;99.90;;;;;;4974976;28;20133;-78
2023/05/27 08:34:36;;;;;;;22.88;20.67;;;19.90;99.90;;;;;;4989577;28;20350;-77
2023/05/27 08:37:03;;;;;;;25.15;22.90;;;19.90;99.90;;;;;;4991747;28;20034;-77
2023/05/27 08:39:28;;;;;;;40.67;37.65;;;19.60;99.90;;;;;;4971053;28;20076;-76
2023/05/27 08:41:54;;;;;;;21.27;19.23;;;19.10;99.90;;;;;;4989699;28;20081;-78
2023/05/27 08:44:23;;;;;;;20.48;18.42;;;19.00;99.60;;;;;;4989344;28;20043;-78
2023/05/27 08:46:50;;;;;;;23.52;21.25;;;19.20;99.90;;;;;;4974485;28;20049;-77
2023/05/27 08:49:16;;;;;;;24.75;22.75;;;19.20;99.30;;;;;;4990373;28;20489;-77
2023/05/27 08:51:44;;;;;;;21.10;18.85;;;18.90;99.90;;;;;;5004222;28;20155;-77
2023/05/27 08:54:10;;;;;;;25.23;22.98;;;18.40;99.50;;;;;;4988926;28;20038;-77
2023/05/27 08:56:37;;;;;;;26.00;23.33;;;18.40;99.90;;;;;;4990483;28;20108;-77
2023/05/27 08:59:02;;;;;;;28.00;25.60;;;18.80;99.90;;;;;;4989572;28;20034;-77
2023/05/27 09:01:30;;;;;;;21.73;19.67;;;19.30;99.90;;;;;;4990193;28;20117;-76
2023/05/27 09:03:56;;;;;;;35.88;33.15;;;19.70;99.70;;;;;;4989663;28;20495;-76
2023/05/27 09:06:22;;;;;;;20.40;17.92;;;20.00;99.90;;;;;;4989160;28;20109;-77
2023/05/27 09:08:48;;;;;;;20.50;18.60;;;20.20;98.20;;;;;;4989751;28;20070;-78
2023/05/27 09:11:25;;;;;;;25.52;22.70;;;20.10;96.80;;;;;;4974024;28;20433;-78
2023/05/27 09:13:56;;;;;;;22.98;20.48;;;20.00;97.70;;;;;;4987605;28;20053;-78
2023/05/27 09:16:22;;;;;;;22.75;20.35;;;19.80;96.20;;;;;;4990258;28;20410;-76
2023/05/27 09:18:48;;;;;;;26.95;24.45;;;19.60;98.10;;;;;;4987268;28;20051;-78
2023/05/27 09:21:14;;;;;;;28.60;25.90;;;19.80;97.90;;;;;;4990381;28;20128;-76
2023/05/27 09:23:40;;;;;;;29.08;26.67;;;20.00;98.20;;;;;;5006277;28;20498;-78
2023/05/27 09:26:10;;;;;;;29.70;27.02;;;20.30;98.40;;;;;;4988490;28;20075;-77
2023/05/27 09:28:37;;;;;;;38.97;35.95;;;20.20;97.60;;;;;;4977525;28;20046;-76
2023/05/27 09:31:05;;;;;;;34.22;31.08;;;20.30;99.00;;;;;;4988899;28;20117;-77
2023/05/27 09:33:39;;;;;;;24.85;22.77;;;20.60;99.20;;;;;;4989362;28;20042;-75
2023/05/27 09:36:05;;;;;;;32.03;29.48;;;20.70;97.00;;;;;;4988487;28;20042;-78
2023/05/27 09:38:33;;;;;;;23.95;20.10;;;20.60;97.80;;;;;;4996619;28;20148;-77
2023/05/27 09:40:59;;;;;;;37.95;34.65;;;20.60;97.20;;;;;;4989328;28;20042;-77
2023/05/27 09:43:26;;;;;;;37.78;35.08;;;20.60;97.00;;;;;;4989364;28;20050;-77
2023/05/27 09:46:01;;;;;;;44.92;42.13;;;20.70;97.40;;;;;;4988556;28;20133;-78
2023/05/27 09:48:31;;;;;;;40.17;37.35;;;20.80;96.10;;;;;;4972752;28;20046;-78
2023/05/27 09:50:59;;;;;;;30.08;27.27;;;20.50;95.90;;;;;;4988388;28;20100;-78
2023/05/27 09:53:26;;;;;;;30.88;28.27;;;20.60;96.70;;;;;;4973092;28;20042;-76
2023/05/27 09:55:56;;;;;;;40.60;37.55;;;20.60;97.10;;;;;;4989652;28;20042;-77
2023/05/27 09:58:23;;;;;;;41.30;38.47;;;20.70;97.90;;;;;;4987898;28;20053;-76
2023/05/27 10:00:49;;;;;;;56.92;53.38;;;20.80;97.80;;;;;;4988793;28;20034;-77
2023/05/27 10:03:17;;;;;;;37.88;34.97;;;20.90;96.70;;;;;;4987918;28;20060;-77
2023/05/27 10:05:44;;;;;;;101.18;96.07;;;20.80;95.60;;;;;;4987946;28;20068;-77
2023/05/27 10:08:12;;;;;;;34.72;32.00;;;20.70;95.20;;;;;;4989117;28;20074;-76
2023/05/27 10:10:38;;;;;;;50.55;47.22;;;20.70;97.10;;;;;;4999796;28;20396;-76
2023/05/27 10:13:04;;;;;;;41.67;38.42;;;20.90;97.00;;;;;;4989265;28;20053;-78
2023/05/27 10:15:32;;;;;;;52.15;48.72;;;21.10;97.10;;;;;;4986539;28;20042;-75
2023/05/27 10:18:09;;;;;;;24.38;20.77;;;21.10;95.50;;;;;;4988861;28;20121;-76
2023/05/27 10:20:37;;;;;;;115.15;109.47;;;21.00;96.20;;;;;;4988457;28;20541;-76
2023/05/27 10:23:10;;;;;;;79.20;74.68;;;21.10;95.60;;;;;;4987914;28;20091;-80
2023/05/27 10:25:40;;;;;;;57.67;53.97;;;21.00;93.70;;;;;;4988032;28;20096;-78
2023/05/27 10:28:07;;;;;;;33.05;30.52;;;20.80;93.30;;;;;;4989113;28;20042;-76
2023/05/27 10:30:46;;;;;;;61.85;58.30;;;20.60;94.10;;;;;;4987262;28;20089;-77
2023/05/27 10:33:12;;;;;;;72.30;68.10;;;20.50;94.20;;;;;;4988744;28;20038;-76
2023/05/27 10:35:42;;;;;;;34.38;31.88;;;20.60;94.50;;;;;;4987601;28;20499;-77
2023/05/27 10:38:17;;;;;;;85.25;80.65;;;20.60;96.00;;;;;;4998932;28;20506;-77
2023/05/27 10:40:50;;;;;;;63.25;59.65;;;20.90;94.70;;;;;;5002692;28;20402;-76
2023/05/27 10:43:19;;;;;;;57.13;53.55;;;21.00;94.60;;;;;;4987415;28;20050;-76
2023/05/27 10:45:48;;;;;;;61.42;57.75;;;21.10;94.40;;;;;;4987765;28;20125;-77
2023/05/27 10:48:21;;;;;;;42.88;39.70;;;21.20;94.10;;;;;;4987147;28;20053;-76
2023/05/27 10:50:53;;;;;;;70.60;66.53;;;21.30;94.90;;;;;;4988856;28;20051;-79
2023/05/27 10:53:22;;;;;;;47.45;44.28;;;21.40;93.30;;;;;;4985866;28;20082;-76
2023/05/27 10:55:52;;;;;;;45.38;42.53;;;21.20;93.50;;;;;;4988658;28;20445;-77
2023/05/27 10:58:20;;;;;;;29.65;27.20;;;21.20;94.30;;;;;;4971407;28;20053;-77
2023/05/27 11:00:49;;;;;;;31.00;28.65;;;21.10;92.80;;;;;;4984679;28;20038;-76
2023/05/27 11:03:22;;;;;;;35.63;33.13;;;21.00;93.90;;;;;;4980177;28;20060;-77
2023/05/27 11:06:01;;;;;;;52.38;49.35;;;21.10;92.80;;;;;;4981883;28;20092;-77
2023/05/27 11:08:27;;;;;;;28.45;26.20;;;21.20;94.80;;;;;;4987149;28;20050;-77
2023/05/27 11:11:05;;;;;;;42.08;39.30;;;21.30;92.50;;;;;;4987881;28;20027;-78
2023/05/27 11:13:36;;;;;;;39.67;36.95;;;21.20;91.80;;;;;;4986831;28;20042;-76
2023/05/27 11:16:04;;;;;;;28.58;25.80;;;21.10;92.20;;;;;;4972020;28;20092;-75
2023/05/27 11:18:43;;;;;;;29.63;27.27;;;21.00;91.90;;;;;;4986878;28;20108;-75
2023/05/27 11:21:10;;;;;;;44.45;41.65;;;20.80;92.50;;;;;;4976107;28;20453;-76
2023/05/27 11:23:49;;;;;;;42.80;40.00;;;20.90;93.00;;;;;;4988006;28;20046;-76
2023/05/27 11:26:22;;;;;;;118.60;112.82;;;20.90;92.50;;;;;;4961672;28;20030;-76
2023/05/27 11:28:54;;;;;;;44.13;41.03;;;21.00;95.20;;;;;;4971036;28;20101;-77
2023/05/27 11:31:21;;;;;;;29.45;26.90;;;21.20;93.40;;;;;;4987813;28;20092;-77
2023/05/27 11:33:50;;;;;;;37.55;34.85;;;21.40;94.30;;;;;;4986758;28;20042;-77
2023/05/27 11:36:16;;;;;;;40.97;38.33;;;21.60;92.80;;;;;;4987225;28;20045;-77
2023/05/27 11:38:51;;;;;;;85.70;80.85;;;21.60;92.80;;;;;;4985889;28;20446;-76
2023/05/27 11:41:18;;;;;;;27.30;25.05;;;21.70;95.00;;;;;;4986642;28;20136;-77
2023/05/27 11:44:06;;;;;;;33.08;30.23;;;22.00;91.90;;;;;;4987828;28;20046;-78
2023/05/27 11:46:41;;;;;;;36.60;33.55;;;21.80;90.40;;;;;;5002234;28;20046;-76
2023/05/27 11:49:10;;;;;;;21.88;19.83;;;21.70;92.20;;;;;;4970880;28;20054;-76
2023/05/27 11:51:49;;;;;;;20.08;18.15;;;22.00;92.40;;;;;;4987413;28;20045;-75
2023/05/27 11:54:20;;;;;;;54.17;50.88;;;22.20;92.30;;;;;;4987164;28;20041;-77
2023/05/27 11:56:47;;;;;;;17.40;15.77;;;22.40;93.30;;;;;;4969477;28;20038;-75
2023/05/27 11:59:13;;;;;;;90.65;85.70;;;22.60;90.90;;;;;;4987364;28;20049;-76
2023/05/27 12:01:40;;;;;;;15.95;14.18;;;22.60;92.10;;;;;;4978542;28;20741;-77
2023/05/27 12:04:06;;;;;;;16.83;15.13;;;22.70;91.00;;;;;;4980240;28;20046;-76
2023/05/27 12:06:32;;;;;;;21.98;19.98;;;22.60;89.10;;;;;;4987858;28;20050;-77
2023/05/27 12:08:57;;;;;;;33.35;30.85;;;22.50;89.30;;;;;;4978697;28;20046;-77
2023/05/27 12:11:23;;;;;;;25.15;23.00;;;22.40;88.60;;;;;;4979770;28;20188;-77
2023/05/27 12:13:49;;;;;;;16.70;15.00;;;22.40;88.70;;;;;;4986502;28;20038;-78
2023/05/27 12:16:14;;;;;;;20.13;18.17;;;22.40;91.00;;;;;;4987379;28;20418;-77
2023/05/27 12:18:41;;;;;;;24.10;21.92;;;22.50;89.30;;;;;;4969019;28;20065;-77
2023/05/27 12:21:07;;;;;;;22.17;20.17;;;22.50;88.40;;;;;;4986940;28;20054;-78
2023/05/27 12:23:33;;;;;;;119.68;96.05;;;22.40;87.70;;;;;;4985675;28;20502;-79